sensor_id;sensor_type;location;lat;lon;timestamp;P1;durP1;ratioP1;P2;durP2;ratioP2
47749;SDS011;49810;48.160;10.812;2023-05-14T00:01:23;34.08;;;21.23;;
47749;SDS011;49810;48.160;10.812;2023-05-14T00:03:51;37.67;;;22.85;;
47749;SDS011;49810;48.160;10.812;2023-05-14T00:06:21;35.15;;;23.15;;
47749;SDS011;49810;48.160;10.812;2023-05-14T00:08:49;37.50;;;22.05;;
47749;SDS011;49810;48.160;10.812;2023-05-14T00:11:16;37.13;;;23.27;;
47749;SDS011;49810;48.160;10.812;2023-05-14T00:13:45;33.78;;;22.17;;
47749;SDS011;49810;48.160;10.812;2023-05-14T00:16:13;35.30;;;22.50;;
47749;SDS011;49810;48.160;10.812;2023-05-14T00:18:41;35.88;;;22.27;;
47749;SDS011;49810;48.160;10.812;2023-05-14T00:21:09;35.45;;;23.05;;
47749;SDS011;49810;48.160;10.812;2023-05-14T00:23:39;35.03;;;22.70;;
47749;SDS011;49810;48.160;10.812;2023-05-14T00:26:06;37.40;;;22.92;;
47749;SDS011;49810;48.160;10.812;2023-05-14T00:28:35;40.25;;;23.80;;
47749;SDS011;49810;48.160;10.812;2023-05-14T00:31:03;37.28;;;24.15;;
47749;SDS011;49810;48.160;10.812;2023-05-14T00:33:31;30.98;;;21.38;;
47749;SDS011;49810;48.160;10.812;2023-05-14T00:36:01;35.65;;;23.15;;
47749;SDS011;49810;48.160;10.812;2023-05-14T00:38:29;33.20;;;22.25;;
47749;SDS011;49810;48.160;10.812;2023-05-14T00:40:59;35.00;;;23.00;;
47749;SDS011;49810;48.160;10.812;2023-05-14T00:43:26;35.60;;;23.00;;
47749;SDS011;49810;48.160;10.812;2023-05-14T00:45:55;34.22;;;21.92;;
47749;SDS011;49810;48.160;10.812;2023-05-14T00:48:23;36.08;;;23.35;;
47749;SDS011;49810;48.160;10.812;2023-05-14T00:50:51;35.30;;;22.95;;
47749;SDS011;49810;48.160;10.812;2023-05-14T00:53:19;32.80;;;21.60;;
47749;SDS011;49810;48.160;10.812;2023-05-14T00:55:47;34.17;;;22.15;;
47749;SDS011;49810;48.160;10.812;2023-05-14T00:58:17;35.10;;;22.65;;
47749;SDS011;49810;48.160;10.812;2023-05-14T01:00:45;38.03;;;24.90;;
47749;SDS011;49810;48.160;10.812;2023-05-14T01:03:13;41.35;;;25.45;;
47749;SDS011;49810;48.160;10.812;2023-05-14T01:05:44;43.50;;;26.20;;
47749;SDS011;49810;48.160;10.812;2023-05-14T01:08:17;36.60;;;24.08;;
47749;SDS011;49810;48.160;10.812;2023-05-14T01:10:48;43.90;;;27.17;;
47749;SDS011;49810;48.160;10.812;2023-05-14T01:13:21;43.40;;;27.33;;
47749;SDS011;49810;48.160;10.812;2023-05-14T01:15:53;39.53;;;26.00;;
47749;SDS011;49810;48.160;10.812;2023-05-14T01:18:22;39.70;;;26.75;;
47749;SDS011;49810;48.160;10.812;2023-05-14T01:20:51;38.80;;;25.42;;
47749;SDS011;49810;48.160;10.812;2023-05-14T01:23:22;39.10;;;26.58;;
47749;SDS011;49810;48.160;10.812;2023-05-14T01:25:50;44.03;;;26.23;;
47749;SDS011;49810;48.160;10.812;2023-05-14T01:28:19;38.85;;;25.45;;
47749;SDS011;49810;48.160;10.812;2023-05-14T01:30:52;36.92;;;25.60;;
47749;SDS011;49810;48.160;10.812;2023-05-14T01:35:51;39.70;;;24.05;;
47749;SDS011;49810;48.160;10.812;2023-05-14T01:38:20;43.80;;;24.60;;
47749;SDS011;49810;48.160;10.812;2023-05-14T01:40:50;35.72;;;24.67;;
47749;SDS011;49810;48.160;10.812;2023-05-14T01:43:19;38.00;;;25.02;;
47749;SDS011;49810;48.160;10.812;2023-05-14T01:45:47;38.45;;;26.00;;
47749;SDS011;49810;48.160;10.812;2023-05-14T01:48:15;37.53;;;25.38;;
47749;SDS011;49810;48.160;10.812;2023-05-14T01:50:43;36.15;;;24.23;;
47749;SDS011;49810;48.160;10.812;2023-05-14T01:53:11;37.15;;;24.88;;
47749;SDS011;49810;48.160;10.812;2023-05-14T01:55:39;42.40;;;25.55;;
47749;SDS011;49810;48.160;10.812;2023-05-14T01:58:09;36.40;;;24.80;;
47749;SDS011;49810;48.160;10.812;2023-05-14T02:00:37;41.95;;;26.45;;
47749;SDS011;49810;48.160;10.812;2023-05-14T02:03:05;36.75;;;24.20;;
47749;SDS011;49810;48.160;10.812;2023-05-14T02:05:33;36.05;;;25.25;;
47749;SDS011;49810;48.160;10.812;2023-05-14T02:08:01;39.80;;;25.02;;
47749;SDS011;49810;48.160;10.812;2023-05-14T02:10:29;38.67;;;25.20;;
47749;SDS011;49810;48.160;10.812;2023-05-14T02:12:57;38.13;;;25.75;;
47749;SDS011;49810;48.160;10.812;2023-05-14T02:15:27;43.85;;;26.77;;
47749;SDS011;49810;48.160;10.812;2023-05-14T02:17:55;41.33;;;27.42;;
47749;SDS011;49810;48.160;10.812;2023-05-14T02:20:23;41.80;;;28.08;;
47749;SDS011;49810;48.160;10.812;2023-05-14T02:22:51;40.22;;;26.63;;
47749;SDS011;49810;48.160;10.812;2023-05-14T02:25:19;42.83;;;27.48;;
47749;SDS011;49810;48.160;10.812;2023-05-14T02:27:47;40.38;;;27.35;;
47749;SDS011;49810;48.160;10.812;2023-05-14T02:30:16;42.35;;;28.08;;
47749;SDS011;49810;48.160;10.812;2023-05-14T02:32:45;42.38;;;26.90;;
47749;SDS011;49810;48.160;10.812;2023-05-14T02:35:13;43.55;;;27.55;;
47749;SDS011;49810;48.160;10.812;2023-05-14T02:37:41;41.30;;;26.77;;
47749;SDS011;49810;48.160;10.812;2023-05-14T02:40:09;40.35;;;26.65;;
47749;SDS011;49810;48.160;10.812;2023-05-14T02:42:38;44.15;;;26.92;;
47749;SDS011;49810;48.160;10.812;2023-05-14T02:45:06;43.45;;;26.90;;
47749;SDS011;49810;48.160;10.812;2023-05-14T02:47:34;40.95;;;26.65;;
47749;SDS011;49810;48.160;10.812;2023-05-14T02:50:05;41.05;;;28.10;;
47749;SDS011;49810;48.160;10.812;2023-05-14T02:52:34;41.47;;;27.35;;
47749;SDS011;49810;48.160;10.812;2023-05-14T02:55:02;43.42;;;27.92;;
47749;SDS011;49810;48.160;10.812;2023-05-14T02:57:30;42.15;;;27.10;;
47749;SDS011;49810;48.160;10.812;2023-05-14T02:59:58;41.42;;;27.15;;
47749;SDS011;49810;48.160;10.812;2023-05-14T03:02:30;41.10;;;26.80;;
47749;SDS011;49810;48.160;10.812;2023-05-14T03:04:58;45.88;;;28.45;;
47749;SDS011;49810;48.160;10.812;2023-05-14T03:07:28;41.85;;;27.60;;
47749;SDS011;49810;48.160;10.812;2023-05-14T03:09:56;47.10;;;27.65;;
47749;SDS011;49810;48.160;10.812;2023-05-14T03:12:25;48.33;;;27.95;;
47749;SDS011;49810;48.160;10.812;2023-05-14T03:14:53;42.40;;;26.85;;
47749;SDS011;49810;48.160;10.812;2023-05-14T03:17:21;42.17;;;27.30;;
47749;SDS011;49810;48.160;10.812;2023-05-14T03:19:49;43.63;;;26.83;;
47749;SDS011;49810;48.160;10.812;2023-05-14T03:22:17;45.38;;;27.77;;
47749;SDS011;49810;48.160;10.812;2023-05-14T03:24:47;47.95;;;28.30;;
47749;SDS011;49810;48.160;10.812;2023-05-14T03:27:15;44.67;;;27.48;;
47749;SDS011;49810;48.160;10.812;2023-05-14T03:29:43;47.63;;;28.20;;
47749;SDS011;49810;48.160;10.812;2023-05-14T03:32:11;48.50;;;28.52;;
47749;SDS011;49810;48.160;10.812;2023-05-14T03:34:39;62.67;;;37.65;;
47749;SDS011;49810;48.160;10.812;2023-05-14T03:37:07;52.05;;;30.83;;
47749;SDS011;49810;48.160;10.812;2023-05-14T03:39:35;49.63;;;30.10;;
47749;SDS011;49810;48.160;10.812;2023-05-14T03:42:05;48.47;;;29.83;;
47749;SDS011;49810;48.160;10.812;2023-05-14T03:44:33;42.55;;;26.95;;
47749;SDS011;49810;48.160;10.812;2023-05-14T03:47:02;45.58;;;28.65;;
47749;SDS011;49810;48.160;10.812;2023-05-14T03:49:30;42.75;;;26.90;;
47749;SDS011;49810;48.160;10.812;2023-05-14T03:51:58;49.03;;;28.40;;
47749;SDS011;49810;48.160;10.812;2023-05-14T03:54:26;43.88;;;27.05;;
47749;SDS011;49810;48.160;10.812;2023-05-14T03:56:55;41.90;;;25.25;;
47749;SDS011;49810;48.160;10.812;2023-05-14T03:59:24;47.13;;;27.30;;
47749;SDS011;49810;48.160;10.812;2023-05-14T04:01:52;42.63;;;27.08;;
47749;SDS011;49810;48.160;10.812;2023-05-14T04:04:20;41.78;;;26.90;;
47749;SDS011;49810;48.160;10.812;2023-05-14T04:06:48;41.58;;;26.90;;
47749;SDS011;49810;48.160;10.812;2023-05-14T04:09:16;45.85;;;28.70;;
47749;SDS011;49810;48.160;10.812;2023-05-14T04:11:44;41.78;;;26.65;;
47749;SDS011;49810;48.160;10.812;2023-05-14T04:14:13;41.38;;;26.17;;
47749;SDS011;49810;48.160;10.812;2023-05-14T04:16:44;42.08;;;27.00;;
47749;SDS011;49810;48.160;10.812;2023-05-14T04:19:12;45.60;;;27.23;;
47749;SDS011;49810;48.160;10.812;2023-05-14T04:21:41;43.42;;;26.80;;
47749;SDS011;49810;48.160;10.812;2023-05-14T04:24:09;42.10;;;26.45;;
47749;SDS011;49810;48.160;10.812;2023-05-14T04:26:37;44.97;;;28.17;;
47749;SDS011;49810;48.160;10.812;2023-05-14T04:29:05;45.47;;;27.85;;
47749;SDS011;49810;48.160;10.812;2023-05-14T04:31:32;45.38;;;28.90;;
47749;SDS011;49810;48.160;10.812;2023-05-14T04:34:02;46.88;;;28.92;;
47749;SDS011;49810;48.160;10.812;2023-05-14T04:36:30;45.35;;;27.60;;
47749;SDS011;49810;48.160;10.812;2023-05-14T04:38:58;46.17;;;28.75;;
47749;SDS011;49810;48.160;10.812;2023-05-14T04:41:27;43.17;;;26.98;;
47749;SDS011;49810;48.160;10.812;2023-05-14T04:43:56;43.83;;;26.52;;
47749;SDS011;49810;48.160;10.812;2023-05-14T04:46:24;40.83;;;25.90;;
47749;SDS011;49810;48.160;10.812;2023-05-14T04:48:52;45.42;;;26.45;;
47749;SDS011;49810;48.160;10.812;2023-05-14T04:51:23;41.70;;;25.90;;
47749;SDS011;49810;48.160;10.812;2023-05-14T04:53:51;42.17;;;26.75;;
47749;SDS011;49810;48.160;10.812;2023-05-14T04:56:19;40.30;;;26.02;;
47749;SDS011;49810;48.160;10.812;2023-05-14T04:58:47;38.15;;;24.33;;
47749;SDS011;49810;48.160;10.812;2023-05-14T05:01:15;36.70;;;24.27;;
47749;SDS011;49810;48.160;10.812;2023-05-14T05:03:44;37.92;;;25.42;;
47749;SDS011;49810;48.160;10.812;2023-05-14T05:06:12;35.35;;;24.83;;
47749;SDS011;49810;48.160;10.812;2023-05-14T05:08:41;33.72;;;23.88;;
47749;SDS011;49810;48.160;10.812;2023-05-14T05:11:09;36.67;;;24.65;;
47749;SDS011;49810;48.160;10.812;2023-05-14T05:13:37;38.92;;;24.02;;
47749;SDS011;49810;48.160;10.812;2023-05-14T05:16:05;32.15;;;22.90;;
47749;SDS011;49810;48.160;10.812;2023-05-14T05:18:33;30.85;;;22.35;;
47749;SDS011;49810;48.160;10.812;2023-05-14T05:21:01;33.85;;;22.08;;
47749;SDS011;49810;48.160;10.812;2023-05-14T05:23:29;33.67;;;22.15;;
47749;SDS011;49810;48.160;10.812;2023-05-14T05:25:58;32.28;;;21.65;;
47749;SDS011;49810;48.160;10.812;2023-05-14T05:28:26;32.55;;;22.30;;
47749;SDS011;49810;48.160;10.812;2023-05-14T05:30:55;33.03;;;21.73;;
47749;SDS011;49810;48.160;10.812;2023-05-14T05:33:23;36.30;;;23.23;;
47749;SDS011;49810;48.160;10.812;2023-05-14T05:35:53;32.58;;;22.30;;
47749;SDS011;49810;48.160;10.812;2023-05-14T05:38:21;34.03;;;21.42;;
47749;SDS011;49810;48.160;10.812;2023-05-14T05:40:50;31.67;;;21.90;;
47749;SDS011;49810;48.160;10.812;2023-05-14T05:43:19;33.45;;;23.17;;
47749;SDS011;49810;48.160;10.812;2023-05-14T05:45:47;35.47;;;22.85;;
47749;SDS011;49810;48.160;10.812;2023-05-14T05:48:15;35.60;;;22.58;;
47749;SDS011;49810;48.160;10.812;2023-05-14T05:50:45;34.60;;;24.23;;
47749;SDS011;49810;48.160;10.812;2023-05-14T05:53:13;37.15;;;24.23;;
47749;SDS011;49810;48.160;10.812;2023-05-14T05:55:42;31.70;;;22.60;;
47749;SDS011;49810;48.160;10.812;2023-05-14T05:58:10;31.33;;;22.27;;
47749;SDS011;49810;48.160;10.812;2023-05-14T06:00:42;30.48;;;21.20;;
47749;SDS011;49810;48.160;10.812;2023-05-14T06:03:12;31.15;;;21.55;;
47749;SDS011;49810;48.160;10.812;2023-05-14T06:05:40;32.03;;;20.48;;
47749;SDS011;49810;48.160;10.812;2023-05-14T06:08:08;31.30;;;19.33;;
47749;SDS011;49810;48.160;10.812;2023-05-14T06:10:37;30.23;;;20.65;;
47749;SDS011;49810;48.160;10.812;2023-05-14T06:13:05;26.67;;;18.23;;
47749;SDS011;49810;48.160;10.812;2023-05-14T06:15:32;28.10;;;19.67;;
47749;SDS011;49810;48.160;10.812;2023-05-14T06:18:02;26.55;;;17.92;;
47749;SDS011;49810;48.160;10.812;2023-05-14T06:20:31;28.42;;;19.05;;
47749;SDS011;49810;48.160;10.812;2023-05-14T06:23:01;27.05;;;18.45;;
47749;SDS011;49810;48.160;10.812;2023-05-14T06:25:29;24.67;;;17.13;;
47749;SDS011;49810;48.160;10.812;2023-05-14T06:27:57;23.00;;;16.20;;
47749;SDS011;49810;48.160;10.812;2023-05-14T06:30:25;23.75;;;16.83;;
47749;SDS011;49810;48.160;10.812;2023-05-14T06:32:53;25.23;;;17.08;;
47749;SDS011;49810;48.160;10.812;2023-05-14T06:35:23;27.77;;;18.40;;
47749;SDS011;49810;48.160;10.812;2023-05-14T06:37:53;28.05;;;17.77;;
47749;SDS011;49810;48.160;10.812;2023-05-14T06:40:21;23.83;;;17.75;;
47749;SDS011;49810;48.160;10.812;2023-05-14T06:42:51;27.10;;;18.23;;
47749;SDS011;49810;48.160;10.812;2023-05-14T06:45:19;31.13;;;19.42;;
47749;SDS011;49810;48.160;10.812;2023-05-14T06:47:48;26.58;;;18.77;;
47749;SDS011;49810;48.160;10.812;2023-05-14T06:50:18;29.45;;;18.75;;
47749;SDS011;49810;48.160;10.812;2023-05-14T06:52:48;25.27;;;17.75;;
47749;SDS011;49810;48.160;10.812;2023-05-14T06:55:16;24.40;;;16.77;;
47749;SDS011;49810;48.160;10.812;2023-05-14T06:57:45;26.55;;;17.67;;
47749;SDS011;49810;48.160;10.812;2023-05-14T07:00:13;28.25;;;16.60;;
47749;SDS011;49810;48.160;10.812;2023-05-14T07:02:41;26.48;;;17.77;;
47749;SDS011;49810;48.160;10.812;2023-05-14T07:05:10;29.95;;;21.00;;
47749;SDS011;49810;48.160;10.812;2023-05-14T07:07:38;25.90;;;17.45;;
47749;SDS011;49810;48.160;10.812;2023-05-14T07:10:07;22.20;;;15.98;;
47749;SDS011;49810;48.160;10.812;2023-05-14T07:12:36;23.27;;;15.85;;
47749;SDS011;49810;48.160;10.812;2023-05-14T07:15:04;23.58;;;16.40;;
47749;SDS011;49810;48.160;10.812;2023-05-14T07:17:32;20.27;;;14.77;;
47749;SDS011;49810;48.160;10.812;2023-05-14T07:20:00;23.67;;;15.70;;
47749;SDS011;49810;48.160;10.812;2023-05-14T07:22:30;27.48;;;17.65;;
47749;SDS011;49810;48.160;10.812;2023-05-14T07:24:58;28.40;;;18.55;;
47749;SDS011;49810;48.160;10.812;2023-05-14T07:27:28;26.67;;;18.75;;
47749;SDS011;49810;48.160;10.812;2023-05-14T07:29:56;29.67;;;18.63;;
47749;SDS011;49810;48.160;10.812;2023-05-14T07:32:26;27.27;;;17.67;;
47749;SDS011;49810;48.160;10.812;2023-05-14T07:34:55;28.00;;;18.20;;
47749;SDS011;49810;48.160;10.812;2023-05-14T07:37:23;26.00;;;16.58;;
47749;SDS011;49810;48.160;10.812;2023-05-14T07:39:52;26.40;;;17.05;;
47749;SDS011;49810;48.160;10.812;2023-05-14T07:42:23;30.33;;;17.00;;
47749;SDS011;49810;48.160;10.812;2023-05-14T07:45:06;28.52;;;16.90;;
47749;SDS011;49810;48.160;10.812;2023-05-14T07:47:35;25.35;;;16.60;;
47749;SDS011;49810;48.160;10.812;2023-05-14T07:50:03;26.48;;;16.63;;
47749;SDS011;49810;48.160;10.812;2023-05-14T07:52:31;31.70;;;17.55;;
47749;SDS011;49810;48.160;10.812;2023-05-14T07:54:59;24.38;;;16.02;;
47749;SDS011;49810;48.160;10.812;2023-05-14T07:57:29;24.55;;;15.90;;
47749;SDS011;49810;48.160;10.812;2023-05-14T07:59:57;23.35;;;15.35;;
47749;SDS011;49810;48.160;10.812;2023-05-14T08:02:39;23.08;;;15.20;;
47749;SDS011;49810;48.160;10.812;2023-05-14T08:05:09;24.90;;;15.30;;
47749;SDS011;49810;48.160;10.812;2023-05-14T08:07:38;22.80;;;15.48;;
47749;SDS011;49810;48.160;10.812;2023-05-14T08:10:07;23.95;;;15.43;;
47749;SDS011;49810;48.160;10.812;2023-05-14T08:12:35;23.45;;;16.02;;
47749;SDS011;49810;48.160;10.812;2023-05-14T08:15:04;27.77;;;17.23;;
47749;SDS011;49810;48.160;10.812;2023-05-14T08:17:33;24.33;;;16.40;;
47749;SDS011;49810;48.160;10.812;2023-05-14T08:20:04;25.50;;;16.48;;
47749;SDS011;49810;48.160;10.812;2023-05-14T08:22:33;23.42;;;16.10;;
47749;SDS011;49810;48.160;10.812;2023-05-14T08:25:03;22.13;;;14.93;;
47749;SDS011;49810;48.160;10.812;2023-05-14T08:27:33;23.08;;;14.98;;
47749;SDS011;49810;48.160;10.812;2023-05-14T08:30:03;21.15;;;13.88;;
47749;SDS011;49810;48.160;10.812;2023-05-14T08:32:32;21.83;;;13.48;;
47749;SDS011;49810;48.160;10.812;2023-05-14T08:35:01;21.10;;;14.02;;
47749;SDS011;49810;48.160;10.812;2023-05-14T08:37:33;22.23;;;14.85;;
47749;SDS011;49810;48.160;10.812;2023-05-14T08:40:01;27.48;;;18.05;;
47749;SDS011;49810;48.160;10.812;2023-05-14T08:42:29;28.98;;;17.77;;
47749;SDS011;49810;48.160;10.812;2023-05-14T08:44:59;32.65;;;20.67;;
47749;SDS011;49810;48.160;10.812;2023-05-14T08:47:29;29.42;;;17.55;;
47749;SDS011;49810;48.160;10.812;2023-05-14T08:50:00;28.60;;;18.05;;
47749;SDS011;49810;48.160;10.812;2023-05-14T08:52:28;26.73;;;16.33;;
47749;SDS011;49810;48.160;10.812;2023-05-14T08:55:00;28.08;;;16.90;;
47749;SDS011;49810;48.160;10.812;2023-05-14T08:57:29;22.48;;;14.73;;
47749;SDS011;49810;48.160;10.812;2023-05-14T08:59:59;14.15;;;10.07;;
47749;SDS011;49810;48.160;10.812;2023-05-14T09:02:28;16.50;;;9.77;;
47749;SDS011;49810;48.160;10.812;2023-05-14T09:04:58;17.05;;;11.00;;
47749;SDS011;49810;48.160;10.812;2023-05-14T09:07:26;19.58;;;11.35;;
47749;SDS011;49810;48.160;10.812;2023-05-14T09:09:54;21.38;;;14.88;;
47749;SDS011;49810;48.160;10.812;2023-05-14T09:12:25;24.13;;;16.17;;
47749;SDS011;49810;48.160;10.812;2023-05-14T09:14:53;25.38;;;17.35;;
47749;SDS011;49810;48.160;10.812;2023-05-14T09:17:21;24.50;;;15.25;;
47749;SDS011;49810;48.160;10.812;2023-05-14T09:19:52;21.83;;;14.48;;
47749;SDS011;49810;48.160;10.812;2023-05-14T09:22:21;22.38;;;15.20;;
47749;SDS011;49810;48.160;10.812;2023-05-14T09:25:02;22.92;;;15.68;;
47749;SDS011;49810;48.160;10.812;2023-05-14T09:27:32;23.50;;;16.17;;
47749;SDS011;49810;48.160;10.812;2023-05-14T09:30:04;22.67;;;15.85;;
47749;SDS011;49810;48.160;10.812;2023-05-14T09:32:37;22.65;;;14.85;;
47749;SDS011;49810;48.160;10.812;2023-05-14T09:35:09;24.60;;;16.92;;
47749;SDS011;49810;48.160;10.812;2023-05-14T09:37:39;26.17;;;18.42;;
47749;SDS011;49810;48.160;10.812;2023-05-14T09:40:08;24.33;;;17.25;;
47749;SDS011;49810;48.160;10.812;2023-05-14T09:42:38;25.15;;;19.08;;
47749;SDS011;49810;48.160;10.812;2023-05-14T09:45:06;46.33;;;31.75;;
47749;SDS011;49810;48.160;10.812;2023-05-14T09:47:34;24.50;;;17.00;;
47749;SDS011;49810;48.160;10.812;2023-05-14T09:50:05;22.70;;;16.45;;
47749;SDS011;49810;48.160;10.812;2023-05-14T09:52:33;23.55;;;16.60;;
47749;SDS011;49810;48.160;10.812;2023-05-14T09:55:03;26.15;;;19.33;;
47749;SDS011;49810;48.160;10.812;2023-05-14T09:57:31;26.17;;;18.92;;
47749;SDS011;49810;48.160;10.812;2023-05-14T10:00:02;24.50;;;17.95;;
47749;SDS011;49810;48.160;10.812;2023-05-14T10:02:34;25.70;;;18.58;;
47749;SDS011;49810;48.160;10.812;2023-05-14T10:05:04;25.65;;;17.23;;
47749;SDS011;49810;48.160;10.812;2023-05-14T10:07:34;27.60;;;18.15;;
47749;SDS011;49810;48.160;10.812;2023-05-14T10:10:02;24.08;;;17.45;;
47749;SDS011;49810;48.160;10.812;2023-05-14T10:12:31;20.45;;;15.02;;
47749;SDS011;49810;48.160;10.812;2023-05-14T10:15:05;20.50;;;15.55;;
47749;SDS011;49810;48.160;10.812;2023-05-14T10:17:39;21.38;;;15.40;;
47749;SDS011;49810;48.160;10.812;2023-05-14T10:20:08;19.38;;;14.15;;
47749;SDS011;49810;48.160;10.812;2023-05-14T10:22:37;16.20;;;12.63;;
47749;SDS011;49810;48.160;10.812;2023-05-14T10:25:05;18.48;;;13.90;;
47749;SDS011;49810;48.160;10.812;2023-05-14T10:27:34;15.05;;;11.82;;
47749;SDS011;49810;48.160;10.812;2023-05-14T10:30:04;14.82;;;11.13;;
47749;SDS011;49810;48.160;10.812;2023-05-14T10:32:32;14.70;;;11.65;;
47749;SDS011;49810;48.160;10.812;2023-05-14T10:35:14;16.73;;;13.40;;
47749;SDS011;49810;48.160;10.812;2023-05-14T10:37:42;16.45;;;12.05;;
47749;SDS011;49810;48.160;10.812;2023-05-14T10:40:11;14.10;;;11.98;;
47749;SDS011;49810;48.160;10.812;2023-05-14T10:42:39;14.85;;;11.65;;
47749;SDS011;49810;48.160;10.812;2023-05-14T10:45:11;15.88;;;11.63;;
47749;SDS011;49810;48.160;10.812;2023-05-14T10:47:40;13.23;;;10.20;;
47749;SDS011;49810;48.160;10.812;2023-05-14T10:50:10;13.38;;;10.07;;
47749;SDS011;49810;48.160;10.812;2023-05-14T10:52:39;13.02;;;10.00;;
47749;SDS011;49810;48.160;10.812;2023-05-14T10:55:09;11.88;;;9.57;;
47749;SDS011;49810;48.160;10.812;2023-05-14T10:57:39;10.88;;;8.73;;
47749;SDS011;49810;48.160;10.812;2023-05-14T11:00:10;11.95;;;9.50;;
47749;SDS011;49810;48.160;10.812;2023-05-14T11:02:41;11.75;;;9.35;;
47749;SDS011;49810;48.160;10.812;2023-05-14T11:05:10;12.57;;;8.68;;
47749;SDS011;49810;48.160;10.812;2023-05-14T11:07:40;12.07;;;9.57;;
47749;SDS011;49810;48.160;10.812;2023-05-14T11:10:10;14.68;;;10.00;;
47749;SDS011;49810;48.160;10.812;2023-05-14T11:12:41;10.82;;;8.40;;
47749;SDS011;49810;48.160;10.812;2023-05-14T11:15:10;10.30;;;8.48;;
47749;SDS011;49810;48.160;10.812;2023-05-14T11:17:41;12.07;;;9.57;;
47749;SDS011;49810;48.160;10.812;2023-05-14T11:20:10;10.93;;;9.38;;
47749;SDS011;49810;48.160;10.812;2023-05-14T11:22:40;10.75;;;8.73;;
47749;SDS011;49810;48.160;10.812;2023-05-14T11:25:10;11.48;;;8.93;;
47749;SDS011;49810;48.160;10.812;2023-05-14T11:27:41;10.15;;;8.60;;
47749;SDS011;49810;48.160;10.812;2023-05-14T11:30:14;10.50;;;8.23;;
47749;SDS011;49810;48.160;10.812;2023-05-14T11:32:43;9.43;;;7.57;;
47749;SDS011;49810;48.160;10.812;2023-05-14T11:35:12;10.00;;;7.60;;
47749;SDS011;49810;48.160;10.812;2023-05-14T11:37:40;10.27;;;8.35;;
47749;SDS011;49810;48.160;10.812;2023-05-14T11:40:13;9.75;;;8.00;;
47749;SDS011;49810;48.160;10.812;2023-05-14T11:45:22;12.30;;;9.55;;
47749;SDS011;49810;48.160;10.812;2023-05-14T11:47:51;9.77;;;7.95;;
47749;SDS011;49810;48.160;10.812;2023-05-14T11:50:19;12.02;;;8.38;;
47749;SDS011;49810;48.160;10.812;2023-05-14T11:52:54;10.43;;;8.52;;
47749;SDS011;49810;48.160;10.812;2023-05-14T11:55:23;11.85;;;8.73;;
47749;SDS011;49810;48.160;10.812;2023-05-14T11:57:51;11.95;;;10.38;;
47749;SDS011;49810;48.160;10.812;2023-05-14T12:00:20;11.27;;;8.30;;
47749;SDS011;49810;48.160;10.812;2023-05-14T12:02:50;9.95;;;7.53;;
47749;SDS011;49810;48.160;10.812;2023-05-14T12:05:19;11.13;;;7.55;;
47749;SDS011;49810;48.160;10.812;2023-05-14T12:07:48;12.95;;;8.70;;
47749;SDS011;49810;48.160;10.812;2023-05-14T12:10:16;9.85;;;7.45;;
47749;SDS011;49810;48.160;10.812;2023-05-14T12:12:44;9.52;;;7.75;;
47749;SDS011;49810;48.160;10.812;2023-05-14T12:15:14;9.65;;;7.82;;
47749;SDS011;49810;48.160;10.812;2023-05-14T12:17:49;8.30;;;7.05;;
47749;SDS011;49810;48.160;10.812;2023-05-14T12:20:18;9.15;;;7.32;;
47749;SDS011;49810;48.160;10.812;2023-05-14T12:22:48;9.52;;;7.72;;
47749;SDS011;49810;48.160;10.812;2023-05-14T12:25:18;9.10;;;7.18;;
47749;SDS011;49810;48.160;10.812;2023-05-14T12:27:46;8.85;;;6.82;;
47749;SDS011;49810;48.160;10.812;2023-05-14T12:30:15;7.90;;;6.45;;
47749;SDS011;49810;48.160;10.812;2023-05-14T12:32:49;10.25;;;7.38;;
47749;SDS011;49810;48.160;10.812;2023-05-14T12:35:19;10.23;;;7.35;;
47749;SDS011;49810;48.160;10.812;2023-05-14T12:37:50;9.05;;;6.95;;
47749;SDS011;49810;48.160;10.812;2023-05-14T12:40:18;10.70;;;6.78;;
47749;SDS011;49810;48.160;10.812;2023-05-14T12:42:45;44.60;;;29.23;;
47749;SDS011;49810;48.160;10.812;2023-05-14T12:45:13;8.88;;;6.47;;
47749;SDS011;49810;48.160;10.812;2023-05-14T12:47:41;8.52;;;6.60;;
47749;SDS011;49810;48.160;10.812;2023-05-14T12:50:11;6.55;;;5.80;;
47749;SDS011;49810;48.160;10.812;2023-05-14T12:52:41;9.23;;;6.40;;
47749;SDS011;49810;48.160;10.812;2023-05-14T12:55:09;8.52;;;6.45;;
47749;SDS011;49810;48.160;10.812;2023-05-14T12:57:37;8.88;;;6.32;;
47749;SDS011;49810;48.160;10.812;2023-05-14T13:00:05;8.13;;;6.55;;
47749;SDS011;49810;48.160;10.812;2023-05-14T13:02:35;7.80;;;6.18;;
47749;SDS011;49810;48.160;10.812;2023-05-14T13:05:08;7.35;;;6.25;;
47749;SDS011;49810;48.160;10.812;2023-05-14T13:07:39;7.18;;;5.65;;
47749;SDS011;49810;48.160;10.812;2023-05-14T13:10:08;6.97;;;5.70;;
47749;SDS011;49810;48.160;10.812;2023-05-14T13:12:38;7.43;;;5.97;;
47749;SDS011;49810;48.160;10.812;2023-05-14T13:15:08;8.90;;;5.75;;
47749;SDS011;49810;48.160;10.812;2023-05-14T13:17:36;8.07;;;6.13;;
47749;SDS011;49810;48.160;10.812;2023-05-14T13:20:04;7.10;;;5.88;;
47749;SDS011;49810;48.160;10.812;2023-05-14T13:22:33;6.38;;;5.13;;
47749;SDS011;49810;48.160;10.812;2023-05-14T13:25:03;8.82;;;5.78;;
47749;SDS011;49810;48.160;10.812;2023-05-14T13:27:35;8.45;;;6.70;;
47749;SDS011;49810;48.160;10.812;2023-05-14T13:30:03;7.50;;;5.57;;
47749;SDS011;49810;48.160;10.812;2023-05-14T13:32:33;7.50;;;5.28;;
47749;SDS011;49810;48.160;10.812;2023-05-14T13:35:01;7.30;;;5.63;;
47749;SDS011;49810;48.160;10.812;2023-05-14T13:37:29;6.45;;;5.50;;
47749;SDS011;49810;48.160;10.812;2023-05-14T13:39:57;5.53;;;4.82;;
47749;SDS011;49810;48.160;10.812;2023-05-14T13:42:26;6.03;;;5.28;;
47749;SDS011;49810;48.160;10.812;2023-05-14T13:44:54;7.75;;;4.78;;
47749;SDS011;49810;48.160;10.812;2023-05-14T13:47:22;5.93;;;5.30;;
47749;SDS011;49810;48.160;10.812;2023-05-14T13:49:50;6.30;;;4.93;;
47749;SDS011;49810;48.160;10.812;2023-05-14T13:52:18;8.40;;;5.03;;
47749;SDS011;49810;48.160;10.812;2023-05-14T13:54:48;8.40;;;5.18;;
47749;SDS011;49810;48.160;10.812;2023-05-14T13:57:16;5.10;;;4.15;;
47749;SDS011;49810;48.160;10.812;2023-05-14T13:59:46;6.57;;;5.05;;
47749;SDS011;49810;48.160;10.812;2023-05-14T14:02:14;7.40;;;4.40;;
47749;SDS011;49810;48.160;10.812;2023-05-14T14:04:43;5.07;;;4.22;;
47749;SDS011;49810;48.160;10.812;2023-05-14T14:07:11;6.30;;;5.03;;
47749;SDS011;49810;48.160;10.812;2023-05-14T14:09:39;7.03;;;4.60;;
47749;SDS011;49810;48.160;10.812;2023-05-14T14:12:07;5.40;;;4.53;;
47749;SDS011;49810;48.160;10.812;2023-05-14T14:14:35;5.18;;;4.20;;
47749;SDS011;49810;48.160;10.812;2023-05-14T14:17:05;5.43;;;3.80;;
47749;SDS011;49810;48.160;10.812;2023-05-14T14:19:34;5.15;;;3.83;;
47749;SDS011;49810;48.160;10.812;2023-05-14T14:22:05;5.25;;;3.55;;
47749;SDS011;49810;48.160;10.812;2023-05-14T14:24:33;3.30;;;2.60;;
47749;SDS011;49810;48.160;10.812;2023-05-14T14:27:04;4.10;;;3.20;;
47749;SDS011;49810;48.160;10.812;2023-05-14T14:29:32;4.63;;;3.38;;